Time;durP1;ratioP1;P1;durP2;ratioP2;P2;SDS_P1;SDS_P2;PMS_P1;PMS_P2;Temp;Humidity;BMP_temperature;BMP_pressure;BME280_temperature;BME280_humidity;BME280_pressure;Samples;Min_cycle;Max_cycle;Signal;HPM_P1;HPM_P2
2022/08/15 00:01:00;;;;;;;5.72;4.28;;;18.00;97.50;;;;;;5026057;28;20025;-34
2022/08/15 00:03:31;;;;;;;4.88;4.47;;;18.00;97.00;;;;;;5029950;28;20388;-32
2022/08/15 00:06:03;;;;;;;4.68;4.18;;;18.00;97.20;;;;;;5033718;28;20075;-32
2022/08/15 00:08:32;;;;;;;4.40;4.00;;;18.00;97.90;;;;;;5036170;28;20509;-33
2022/08/15 00:11:09;;;;;;;4.43;3.95;;;18.10;97.60;;;;;;5029358;28;20053;-32
2022/08/15 00:13:35;;;;;;;5.38;3.80;;;18.10;97.60;;;;;;5029141;28;20030;-33
2022/08/15 00:16:01;;;;;;;4.93;4.53;;;18.20;96.90;;;;;;5038464;28;20654;-32
2022/08/15 00:18:28;;;;;;;4.95;4.32;;;18.20;98.70;;;;;;5034855;28;20026;-32
2022/08/15 00:20:54;;;;;;;4.47;3.95;;;18.20;97.30;;;;;;5035551;28;20056;-32
2022/08/15 00:23:24;;;;;;;5.22;4.30;;;18.20;96.80;;;;;;5040328;28;20032;-33
2022/08/15 00:25:54;;;;;;;5.45;4.50;;;18.10;99.90;;;;;;5037441;28;20130;-32
2022/08/15 00:28:19;;;;;;;5.40;4.38;;;18.20;97.70;;;;;;5029605;28;20045;-32
2022/08/15 00:30:46;;;;;;;4.68;4.18;;;18.30;97.00;;;;;;5027745;28;20076;-31
2022/08/15 00:33:14;;;;;;;4.78;4.07;;;18.30;97.20;;;;;;5036213;28;20510;-33
2022/08/15 00:35:45;;;;;;;4.95;4.22;;;18.40;98.30;;;;;;5032329;28;20109;-31
2022/08/15 00:38:15;;;;;;;5.05;4.53;;;18.30;98.60;;;;;;5032728;28;20091;-32
2022/08/15 00:43:32;;;;;;;4.35;3.95;;;18.40;96.50;;;;;;5037471;28;20055;-34
2022/08/15 00:45:59;;;;;;;5.07;4.20;;;18.50;96.50;;;;;;5036664;28;20037;-32
2022/08/15 00:48:41;;;;;;;5.13;4.43;;;18.50;97.80;;;;;;5033913;28;20013;-34
2022/08/15 00:51:09;;;;;;;5.28;4.50;;;18.50;96.90;;;;;;5029501;28;20099;-31
2022/08/15 00:53:35;;;;;;;4.60;4.20;;;18.40;99.90;;;;;;5026741;28;20072;-32
2022/08/15 00:56:04;;;;;;;4.78;4.38;;;18.30;99.60;;;;;;5035412;28;20032;-32
2022/08/15 00:58:30;;;;;;;5.20;4.80;;;18.30;99.50;;;;;;5034070;28;20473;-35
2022/08/15 01:00:55;;;;;;;5.80;4.20;;;18.40;99.70;;;;;;5029826;28;20099;-33
2022/08/15 01:03:29;;;;;;;4.25;3.85;;;18.40;98.10;;;;;;5031184;28;20039;-33
2022/08/15 01:05:57;;;;;;;8.10;4.35;;;18.50;97.80;;;;;;5029194;28;20567;-32
2022/08/15 01:08:27;;;;;;;5.32;3.88;;;18.50;96.60;;;;;;5031137;28;20494;-35
2022/08/15 01:10:55;;;;;;;3.75;3.45;;;18.60;95.80;;;;;;5030555;28;20077;-33
2022/08/15 01:13:21;;;;;;;4.70;4.20;;;18.80;95.00;;;;;;5034888;28;20075;-32
2022/08/15 01:15:46;;;;;;;5.85;4.07;;;18.90;94.60;;;;;;5027213;28;20029;-36
2022/08/15 01:18:12;;;;;;;5.35;4.07;;;18.90;93.80;;;;;;5034803;28;20025;-37
2022/08/15 01:20:41;;;;;;;4.45;3.50;;;18.90;94.30;;;;;;5026221;28;20064;-32
2022/08/15 01:23:36;;;;;;;5.03;3.50;;;19.00;93.90;;;;;;5036443;28;20017;-31
2022/08/15 01:26:06;;;;;;;4.63;3.53;;;19.10;94.90;;;;;;5023578;28;20446;-32
2022/08/15 01:28:41;;;;;;;5.70;3.55;;;19.10;94.40;;;;;;5029928;28;20029;-32
2022/08/15 01:31:10;;;;;;;5.53;3.85;;;19.10;93.70;;;;;;5029053;28;20064;-32
2022/08/15 01:33:52;;;;;;;4.10;3.67;;;19.10;93.90;;;;;;5028562;28;20038;-32
2022/08/15 01:36:20;;;;;;;4.88;4.07;;;19.10;93.90;;;;;;5032723;28;20359;-32
2022/08/15 01:38:58;;;;;;;5.78;4.00;;;19.10;93.80;;;;;;5036534;28;20029;-31
2022/08/15 01:41:37;;;;;;;4.95;4.07;;;19.20;93.70;;;;;;5031721;28;20033;-31
2022/08/15 01:44:22;;;;;;;6.13;3.92;;;19.20;93.40;;;;;;5032294;28;20037;-32
2022/08/15 01:47:02;;;;;;;6.15;3.63;;;19.30;93.00;;;;;;5029026;28;20429;-37
2022/08/15 01:49:38;;;;;;;4.72;3.50;;;19.30;93.30;;;;;;5034329;28;20029;-32
2022/08/15 01:52:04;;;;;;;3.67;3.38;;;19.30;93.50;;;;;;5028083;28;20129;-31
2022/08/15 01:54:37;;;;;;;4.18;3.35;;;19.30;93.40;;;;;;5040341;28;20025;-31
2022/08/15 01:57:05;;;;;;;5.13;3.75;;;19.30;92.80;;;;;;5032652;28;20123;-35
2022/08/15 01:59:31;;;;;;;4.70;3.97;;;19.30;93.00;;;;;;5036948;28;20036;-33
2022/08/15 02:02:04;;;;;;;6.15;3.97;;;19.30;94.50;;;;;;5030127;28;20036;-34
2022/08/15 02:04:47;;;;;;;4.50;3.78;;;19.30;95.20;;;;;;5034567;28;20109;-31
2022/08/15 02:07:17;;;;;;;3.95;3.40;;;19.30;94.20;;;;;;5032289;28;20485;-32
2022/08/15 02:09:44;;;;;;;4.60;3.75;;;19.30;94.70;;;;;;5037890;28;20029;-32
2022/08/15 02:12:12;;;;;;;5.47;3.67;;;19.30;94.70;;;;;;5034182;28;20149;-31
2022/08/15 02:14:41;;;;;;;4.18;3.33;;;19.30;94.70;;;;;;5042437;28;20298;-32
2022/08/15 02:17:08;;;;;;;6.63;3.70;;;19.20;93.70;;;;;;5032260;28;20087;-31
2022/08/15 02:19:36;;;;;;;3.33;3.03;;;19.30;94.90;;;;;;5040751;28;20033;-31
2022/08/15 02:22:04;;;;;;;8.07;3.22;;;19.20;94.10;;;;;;5032165;28;20109;-32
2022/08/15 02:24:30;;;;;;;3.67;3.25;;;19.30;95.30;;;;;;5029887;28;20040;-32
2022/08/15 02:26:56;;;;;;;3.60;3.15;;;19.30;94.80;;;;;;5033340;28;20025;-36
2022/08/15 02:29:25;;;;;;;4.57;3.45;;;19.30;94.00;;;;;;5035746;28;20044;-32
2022/08/15 02:31:55;;;;;;;5.93;3.58;;;19.40;94.00;;;;;;5030978;28;20076;-32
2022/08/15 02:34:21;;;;;;;5.03;3.70;;;19.40;92.70;;;;;;5040552;28;21447;-32
2022/08/15 02:36:48;;;;;;;4.35;3.47;;;19.50;92.80;;;;;;5040952;28;20478;-36
2022/08/15 02:39:15;;;;;;;4.60;3.60;;;19.50;92.60;;;;;;5035860;28;20031;-33
2022/08/15 02:41:43;;;;;;;7.03;3.85;;;19.50;92.70;;;;;;5037499;28;20032;-32
2022/08/15 02:44:11;;;;;;;5.65;3.22;;;19.60;92.70;;;;;;5036528;28;20037;-33
2022/08/15 02:46:39;;;;;;;4.18;3.55;;;19.50;92.60;;;;;;5033415;28;20148;-33
2022/08/15 02:49:11;;;;;;;;;;;19.50;93.20;;;;;;5040446;28;20122;-32
2022/08/15 02:51:41;;;;;;;5.25;3.83;;;19.60;92.40;;;;;;5041928;28;19915;-35
2022/08/15 02:54:08;;;;;;;3.47;3.00;;;19.50;93.40;;;;;;5029502;28;20036;-32
2022/08/15 02:56:34;;;;;;;7.25;3.40;;;19.40;92.80;;;;;;5039070;28;20089;-34
2022/08/15 02:59:00;;;;;;;5.25;3.22;;;19.50;92.90;;;;;;5033539;28;20033;-32
2022/08/15 03:01:28;;;;;;;6.68;4.05;;;19.50;92.70;;;;;;5034942;28;20033;-32
2022/08/15 03:03:55;;;;;;;3.90;3.20;;;19.50;92.30;;;;;;5037256;28;20617;-34
2022/08/15 03:06:30;;;;;;;4.30;3.33;;;19.60;92.10;;;;;;5037193;28;20029;-31
2022/08/15 03:09:00;;;;;;;3.85;3.35;;;19.60;92.20;;;;;;5039819;28;20089;-34
2022/08/15 03:11:27;;;;;;;3.63;3.15;;;19.50;92.10;;;;;;5030406;28;20430;-32
2022/08/15 03:13:54;;;;;;;4.05;3.22;;;19.50;92.30;;;;;;5036509;28;20032;-34
2022/08/15 03:16:19;;;;;;;4.65;3.38;;;19.60;92.00;;;;;;5038492;28;20037;-33
2022/08/15 03:18:45;;;;;;;3.85;3.17;;;19.50;92.10;;;;;;5035250;28;20746;-32
2022/08/15 03:21:14;;;;;;;5.68;3.60;;;19.60;91.90;;;;;;5034417;28;20095;-32
2022/08/15 03:23:48;;;;;;;3.50;2.92;;;19.50;92.50;;;;;;5041390;28;20579;-31
2022/08/15 03:26:16;;;;;;;3.60;3.10;;;19.50;91.50;;;;;;5037753;28;20025;-33
2022/08/15 03:28:41;;;;;;;5.63;3.30;;;19.50;92.20;;;;;;5028192;28;20062;-36
2022/08/15 03:31:07;;;;;;;4.25;3.60;;;19.50;92.40;;;;;;5025559;28;20503;-36
2022/08/15 03:33:34;;;;;;;4.80;3.72;;;19.50;92.30;;;;;;5033253;28;20036;-33
2022/08/15 03:36:00;;;;;;;4.25;3.00;;;19.50;92.10;;;;;;5032498;28;20026;-34
2022/08/15 03:38:26;;;;;;;4.03;3.05;;;19.40;92.20;;;;;;5031282;28;20048;-35
2022/08/15 03:40:52;;;;;;;3.40;2.78;;;19.40;92.20;;;;;;5029057;28;20025;-31
2022/08/15 03:43:27;;;;;;;4.78;3.50;;;19.40;92.70;;;;;;5033955;28;20068;-32
2022/08/15 03:46:02;;;;;;;3.88;2.80;;;19.40;92.80;;;;;;5035489;28;20437;-33
2022/08/15 03:48:33;;;;;;;5.10;3.25;;;19.30;92.50;;;;;;5034360;28;20026;-36
2022/08/15 03:51:01;;;;;;;3.42;3.13;;;19.40;92.50;;;;;;5026275;28;20188;-32
2022/08/15 03:53:29;;;;;;;7.03;3.33;;;19.30;93.10;;;;;;5031066;28;20457;-32
2022/08/15 03:55:57;;;;;;;5.63;3.33;;;19.30;92.60;;;;;;5033838;28;20132;-31
2022/08/15 03:58:23;;;;;;;3.15;2.85;;;19.30;92.50;;;;;;5030427;28;20470;-31
2022/08/15 04:00:49;;;;;;;4.50;2.90;;;19.30;92.30;;;;;;5028052;28;20025;-32
2022/08/15 04:03:19;;;;;;;3.35;2.85;;;19.30;92.70;;;;;;5028576;28;20552;-32
2022/08/15 04:05:52;;;;;;;4.22;2.90;;;19.30;92.80;;;;;;5031594;28;20025;-37
2022/08/15 04:08:20;;;;;;;3.85;3.42;;;19.30;92.40;;;;;;5030602;28;20018;-32
2022/08/15 04:10:50;;;;;;;3.35;3.05;;;19.30;93.00;;;;;;5033427;28;20110;-32
2022/08/15 04:13:18;;;;;;;5.35;3.17;;;19.30;92.20;;;;;;5027547;28;20139;-32
2022/08/15 04:15:43;;;;;;;7.47;3.70;;;19.30;93.30;;;;;;5034249;28;20108;-32
2022/08/15 04:18:09;;;;;;;4.55;3.15;;;19.30;93.00;;;;;;5032220;28;20167;-34
2022/08/15 04:20:35;;;;;;;4.50;3.25;;;19.30;92.90;;;;;;5049155;28;20033;-33
2022/08/15 04:23:01;;;;;;;5.10;2.78;;;19.30;93.80;;;;;;5037353;28;20378;-34
2022/08/15 04:25:33;;;;;;;5.40;3.53;;;19.30;93.80;;;;;;5037437;28;20033;-32
2022/08/15 04:28:03;;;;;;;3.53;3.15;;;19.30;93.90;;;;;;5028660;28;20036;-33
2022/08/15 04:30:40;;;;;;;4.88;3.20;;;19.20;93.70;;;;;;5028765;28;20037;-31
2022/08/15 04:33:22;;;;;;;4.20;3.00;;;19.30;94.10;;;;;;5031259;28;20363;-31
2022/08/15 04:35:51;;;;;;;3.72;3.10;;;19.20;93.80;;;;;;5034422;28;20072;-32
2022/08/15 04:38:17;;;;;;;3.65;3.30;;;19.20;94.50;;;;;;5031757;28;20076;-33
2022/08/15 04:40:44;;;;;;;4.13;3.45;;;19.20;94.10;;;;;;5034552;28;20028;-33
2022/08/15 04:43:11;;;;;;;4.50;3.20;;;19.10;94.70;;;;;;5031035;28;20033;-33
2022/08/15 04:45:40;;;;;;;3.83;3.20;;;19.20;93.90;;;;;;5038617;28;21861;-31
2022/08/15 04:48:06;;;;;;;3.28;2.97;;;19.20;94.60;;;;;;5032226;28;20756;-35
2022/08/15 04:50:35;;;;;;;3.40;3.05;;;19.20;93.90;;;;;;5035326;28;20090;-35
2022/08/15 04:53:02;;;;;;;2.95;2.70;;;19.30;94.60;;;;;;5028851;28;20037;-32
2022/08/15 04:55:28;;;;;;;3.95;3.10;;;19.30;94.10;;;;;;5034490;28;21546;-31
2022/08/15 04:57:56;;;;;;;3.80;3.03;;;19.30;95.50;;;;;;5032532;28;20068;-34
2022/08/15 05:00:27;;;;;;;5.55;3.33;;;19.30;94.70;;;;;;5026737;28;20062;-31
2022/08/15 05:03:06;;;;;;;3.75;2.97;;;19.30;94.80;;;;;;5032924;28;20817;-40
2022/08/15 05:05:34;;;;;;;6.20;3.25;;;19.30;94.80;;;;;;5031987;28;20347;-35
2022/08/15 05:08:00;;;;;;;5.20;2.95;;;19.40;95.00;;;;;;5031077;28;20036;-34
2022/08/15 05:10:27;;;;;;;4.10;2.67;;;19.40;95.20;;;;;;5026793;28;20034;-31
2022/08/15 05:12:53;;;;;;;3.38;2.63;;;19.40;95.00;;;;;;5033889;28;20026;-35
2022/08/15 05:15:20;;;;;;;3.20;2.67;;;19.40;94.90;;;;;;5030974;28;20055;-31
2022/08/15 05:17:47;;;;;;;3.33;2.90;;;19.40;95.50;;;;;;5032611;28;20727;-35
2022/08/15 05:20:14;;;;;;;3.10;2.80;;;19.40;95.30;;;;;;5029216;28;20057;-32
2022/08/15 05:22:53;;;;;;;4.50;2.90;;;19.30;97.00;;;;;;5033375;28;20029;-34
2022/08/15 05:25:19;;;;;;;4.35;2.75;;;19.30;96.20;;;;;;5029828;28;20045;-31
2022/08/15 05:27:44;;;;;;;4.50;2.80;;;19.30;95.50;;;;;;5030036;28;20029;-35
2022/08/15 05:30:11;;;;;;;3.63;2.90;;;19.40;95.80;;;;;;5024440;28;20021;-31
2022/08/15 05:32:38;;;;;;;2.85;2.63;;;19.40;96.20;;;;;;5033127;28;20037;-32
2022/08/15 05:35:04;;;;;;;7.45;3.05;;;19.40;95.20;;;;;;5030490;28;20818;-32
2022/08/15 05:37:30;;;;;;;4.75;3.20;;;19.50;95.60;;;;;;5034223;28;20051;-31
2022/08/15 05:39:56;;;;;;;4.47;2.63;;;19.50;95.70;;;;;;5031858;28;21018;-34
2022/08/15 05:42:35;;;;;;;5.28;2.55;;;19.50;96.10;;;;;;5037563;28;20048;-32
2022/08/15 05:45:11;;;;;;;2.67;2.47;;;19.50;97.20;;;;;;5033417;28;20120;-34
2022/08/15 05:47:43;;;;;;;3.38;2.38;;;19.50;96.40;;;;;;5032842;28;20518;-34
2022/08/15 05:50:11;;;;;;;3.80;2.20;;;19.50;97.30;;;;;;5028305;28;20056;-31
2022/08/15 05:52:52;;;;;;;4.30;2.35;;;19.50;96.40;;;;;;5031007;28;20547;-34
2022/08/15 05:55:38;;;;;;;2.50;2.20;;;19.50;96.90;;;;;;5030931;28;20075;-31
2022/08/15 05:58:12;;;;;;;5.15;2.30;;;19.50;97.40;;;;;;5059365;28;20029;-31
2022/08/15 06:00:40;;;;;;;2.33;2.13;;;19.50;97.40;;;;;;5025228;28;20037;-31
2022/08/15 06:03:27;;;;;;;2.85;1.92;;;19.50;97.60;;;;;;5027771;28;20187;-31
2022/08/15 06:06:10;;;;;;;2.47;2.28;;;19.50;97.80;;;;;;5026092;28;20034;-34
2022/08/15 06:08:43;;;;;;;2.97;1.73;;;19.50;98.10;;;;;;5033614;28;20501;-32
2022/08/15 06:11:44;;;;;;;2.50;2.22;;;19.50;97.60;;;;;;5032878;28;20040;-32
2022/08/15 06:14:30;;;;;;;3.30;2.20;;;19.50;97.10;;;;;;4997362;28;20049;-31
2022/08/15 06:17:02;;;;;;;2.38;2.17;;;19.40;98.30;;;;;;5036379;28;20129;-32
2022/08/15 06:19:35;;;;;;;2.22;2.00;;;19.40;98.40;;;;;;5024090;28;20053;-33
2022/08/15 06:22:36;;;;;;;3.03;2.42;;;19.40;98.80;;;;;;5028494;28;20024;-32
2022/08/15 06:25:32;;;;;;;3.53;1.90;;;19.50;97.80;;;;;;4994772;28;20518;-32
2022/08/15 06:28:16;;;;;;;2.53;2.25;;;19.50;98.10;;;;;;5025056;28;20486;-32
2022/08/15 06:31:01;;;;;;;2.75;2.03;;;19.50;99.00;;;;;;5030949;28;20486;-34
2022/08/15 06:33:50;;;;;;;2.47;2.03;;;19.40;99.70;;;;;;5032959;28;20394;-37
2022/08/15 06:36:33;;;;;;;2.90;2.00;;;19.40;99.80;;;;;;5028462;28;20031;-32
2022/08/15 06:39:16;;;;;;;3.95;2.30;;;19.40;99.90;;;;;;5028658;28;20103;-32
2022/08/15 06:42:18;;;;;;;3.30;2.10;;;19.40;99.90;;;;;;5027112;28;20029;-32
2022/08/15 06:44:49;;;;;;;2.30;2.10;;;19.40;99.90;;;;;;5032562;28;20036;-31
2022/08/15 06:47:17;;;;;;;4.90;2.20;;;19.40;99.90;;;;;;5026019;28;20021;-34
2022/08/15 06:49:48;;;;;;;4.32;2.30;;;19.40;99.90;;;;;;5027965;28;20275;-31
2022/08/15 06:52:17;;;;;;;4.85;2.13;;;19.40;99.90;;;;;;5027937;28;20041;-31
2022/08/15 06:54:42;;;;;;;2.85;2.08;;;19.40;99.90;;;;;;5037392;28;20025;-33
2022/08/15 06:57:25;;;;;;;3.00;2.30;;;19.50;99.90;;;;;;5030590;28;20103;-33
2022/08/15 07:00:10;;;;;;;4.45;2.22;;;19.50;99.90;;;;;;5031831;28;20526;-32
2022/08/15 07:02:59;;;;;;;2.42;2.05;;;19.50;99.90;;;;;;5024719;28;20045;-36
2022/08/15 07:05:36;;;;;;;3.05;2.13;;;19.50;99.90;;;;;;5030690;28;20036;-37
2022/08/15 07:08:21;;;;;;;4.20;2.70;;;19.50;99.90;;;;;;5035526;28;20018;-32
2022/08/15 07:10:56;;;;;;;2.97;2.05;;;19.60;99.90;;;;;;5026590;28;20061;-31
2022/08/15 07:13:31;;;;;;;2.55;2.30;;;19.60;99.90;;;;;;5028604;28;20086;-31
2022/08/15 07:16:00;;;;;;;2.58;2.38;;;19.60;99.90;;;;;;5034296;28;20033;-35
2022/08/15 07:18:34;;;;;;;2.72;2.20;;;19.70;99.90;;;;;;5032950;28;20037;-31
2022/08/15 07:21:12;;;;;;;3.42;2.20;;;19.70;99.90;;;;;;5029546;28;20045;-32
2022/08/15 07:24:03;;;;;;;3.00;2.70;;;19.70;99.90;;;;;;5037057;28;20021;-34
2022/08/15 07:26:31;;;;;;;2.88;2.50;;;19.70;99.90;;;;;;5033191;28;20115;-31
2022/08/15 07:28:59;;;;;;;;;;;19.80;99.90;;;;;;5034173;28;20499;-35
2022/08/15 07:31:36;;;;;;;2.60;2.22;;;19.80;99.90;;;;;;5033954;28;20393;-34
2022/08/15 07:34:21;;;;;;;3.38;2.17;;;19.90;99.90;;;;;;5038251;28;20033;-32
2022/08/15 07:36:56;;;;;;;2.20;2.00;;;19.90;99.90;;;;;;5032108;28;20025;-33
2022/08/15 07:39:28;;;;;;;2.45;2.10;;;20.00;99.90;;;;;;5034968;28;20394;-33
2022/08/15 07:41:54;;;;;;;3.05;2.38;;;20.00;99.90;;;;;;5039256;28;20033;-31
2022/08/15 07:44:25;;;;;;;5.47;2.42;;;20.10;99.90;;;;;;5037441;28;20032;-32
2022/08/15 07:46:54;;;;;;;4.40;2.45;;;20.10;99.90;;;;;;5032965;28;20029;-32
2022/08/15 07:49:25;;;;;;;3.92;2.17;;;20.10;99.90;;;;;;5037671;28;20124;-32
2022/08/15 07:52:05;;;;;;;2.88;2.22;;;20.10;99.90;;;;;;5039624;28;20036;-32
2022/08/15 07:54:48;;;;;;;2.50;2.30;;;20.10;99.90;;;;;;5035076;28;20037;-32
2022/08/15 07:57:29;;;;;;;4.60;2.40;;;20.20;99.90;;;;;;5034045;28;20033;-31
2022/08/15 08:00:25;;;;;;;3.97;2.22;;;20.30;99.90;;;;;;5033530;28;20507;-32
2022/08/15 08:03:00;;;;;;;2.58;2.30;;;20.30;99.90;;;;;;5027074;28;20049;-35
2022/08/15 08:05:34;;;;;;;2.47;2.28;;;20.40;99.90;;;;;;5030238;28;20035;-32
2022/08/15 08:08:05;;;;;;;2.45;2.25;;;20.30;99.90;;;;;;5035686;28;20029;-35
2022/08/15 08:11:04;;;;;;;3.28;2.20;;;20.60;99.90;;;;;;5036201;28;20107;-34
2022/08/15 08:13:49;;;;;;;3.30;2.15;;;20.90;99.90;;;;;;5038347;28;20524;-34
2022/08/15 08:16:52;;;;;;;2.40;2.20;;;21.10;99.00;;;;;;5030726;28;20025;-36
2022/08/15 08:19:32;;;;;;;2.20;1.98;;;21.50;97.60;;;;;;5038645;28;20026;-32
2022/08/15 08:22:18;;;;;;;2.80;2.15;;;21.90;95.80;;;;;;5029690;28;20033;-32
2022/08/15 08:25:01;;;;;;;3.38;2.20;;;22.20;94.80;;;;;;5042488;28;20040;-31
2022/08/15 08:27:30;;;;;;;3.33;2.40;;;22.20;91.90;;;;;;5046974;28;20041;-34
2022/08/15 08:30:25;;;;;;;2.95;2.28;;;22.30;91.20;;;;;;5025364;28;20029;-36
2022/08/15 08:33:19;;;;;;;2.60;2.17;;;22.60;92.10;;;;;;5025392;28;20139;-33
2022/08/15 08:36:11;;;;;;;4.03;2.22;;;22.40;90.50;;;;;;5028518;28;20037;-35
2022/08/15 08:38:47;;;;;;;2.22;2.05;;;22.30;90.90;;;;;;5026058;28;20033;-32
2022/08/15 08:41:54;;;;;;;2.60;2.40;;;22.50;91.20;;;;;;5033203;28;20029;-33
2022/08/15 08:44:32;;;;;;;3.58;2.33;;;22.70;90.80;;;;;;5032099;28;20072;-33
2022/08/15 08:47:12;;;;;;;2.25;2.05;;;22.90;88.90;;;;;;5036030;28;20029;-31
2022/08/15 08:50:16;;;;;;;2.42;2.22;;;23.10;88.30;;;;;;5027172;28;20456;-31
2022/08/15 08:53:03;;;;;;;2.38;2.20;;;23.20;88.90;;;;;;5027729;28;20108;-34
2022/08/15 08:55:51;;;;;;;4.80;2.47;;;23.20;86.60;;;;;;5028453;28;20045;-34
2022/08/15 08:58:31;;;;;;;2.60;2.30;;;23.30;87.50;;;;;;5025421;28;20048;-34
2022/08/15 09:00:58;;;;;;;2.25;2.08;;;23.40;87.80;;;;;;5024784;28;20597;-32
2022/08/15 09:03:39;;;;;;;2.72;1.83;;;23.50;82.40;;;;;;5026882;28;20034;-32
2022/08/15 09:06:09;;;;;;;1.98;1.83;;;23.60;79.40;;;;;;5028893;28;20021;-32
2022/08/15 09:08:39;;;;;;;1.90;1.80;;;23.40;76.50;;;;;;5022497;28;20029;-38
2022/08/15 09:11:16;;;;;;;3.50;2.00;;;23.40;76.30;;;;;;5030659;28;20078;-35
2022/08/15 09:13:43;;;;;;;1.95;1.85;;;23.60;77.00;;;;;;5028554;28;20083;-36
2022/08/15 09:16:09;;;;;;;2.47;2.10;;;23.80;74.90;;;;;;5034635;28;20038;-33
2022/08/15 09:18:42;;;;;;;2.13;1.92;;;24.20;73.30;;;;;;5039114;28;20437;-32
2022/08/15 09:21:08;;;;;;;2.40;1.67;;;24.20;73.60;;;;;;5034779;28;20045;-31
2022/08/15 09:23:39;;;;;;;3.35;2.45;;;24.40;71.60;;;;;;5027657;28;20032;-31
2022/08/15 09:26:38;;;;;;;3.13;2.13;;;24.40;73.90;;;;;;5036103;28;20049;-31
2022/08/15 09:29:22;;;;;;;;;;;24.50;70.20;;;;;;5033151;28;20047;-32
2022/08/15 09:31:54;;;;;;;4.47;1.90;;;24.60;67.40;;;;;;5033722;28;20355;-33
2022/08/15 09:35:07;;;;;;;1.55;1.45;;;25.10;67.90;;;;;;5032954;28;20025;-31
2022/08/15 09:38:06;;;;;;;1.75;1.65;;;25.20;57.70;;;;;;4971064;28;20035;-32
2022/08/15 09:40:42;;;;;;;1.70;1.60;;;25.20;58.50;;;;;;5037187;28;20033;-31
2022/08/15 09:43:16;;;;;;;1.90;1.65;;;25.40;57.50;;;;;;5037302;28;20029;-31
2022/08/15 09:46:24;;;;;;;2.67;1.58;;;25.10;57.80;;;;;;5026587;28;20032;-32
2022/08/15 09:49:06;;;;;;;2.20;1.70;;;25.20;59.00;;;;;;5033005;28;20034;-31
2022/08/15 09:52:10;;;;;;;3.10;1.70;;;25.40;58.10;;;;;;5033265;28;20570;-35
2022/08/15 09:54:56;;;;;;;3.35;2.00;;;25.60;58.20;;;;;;5028455;28;20029;-32
2022/08/15 09:57:28;;;;;;;1.93;1.63;;;26.10;57.30;;;;;;5034022;28;20068;-31
2022/08/15 10:00:16;;;;;;;3.97;1.88;;;25.50;55.10;;;;;;5026954;28;20284;-32
2022/08/15 10:02:45;;;;;;;2.13;1.52;;;25.50;54.50;;;;;;5033688;28;20040;-32
2022/08/15 10:05:51;;;;;;;1.90;1.80;;;25.20;52.40;;;;;;5030836;28;20021;-32
2022/08/15 10:08:16;;;;;;;1.83;1.70;;;25.10;57.50;;;;;;5039109;28;20037;-31
2022/08/15 10:10:53;;;;;;;5.45;1.80;;;25.70;58.00;;;;;;5037634;28;20868;-33
2022/08/15 10:13:28;;;;;;;1.77;1.42;;;25.80;54.70;;;;;;5030548;28;20156;-31
2022/08/15 10:15:56;;;;;;;2.00;1.60;;;25.50;52.30;;;;;;5026293;28;20033;-32
2022/08/15 10:18:21;;;;;;;3.10;1.83;;;25.30;52.40;;;;;;5030480;28;20033;-32
2022/08/15 10:20:49;;;;;;;1.88;1.60;;;25.10;52.10;;;;;;5030552;28;20049;-32
2022/08/15 10:23:15;;;;;;;2.33;1.77;;;25.00;52.00;;;;;;5037576;28;20474;-31
2022/08/15 10:25:45;;;;;;;1.83;1.40;;;24.90;54.00;;;;;;5028331;28;20473;-31
2022/08/15 10:28:10;;;;;;;2.42;1.65;;;25.10;54.50;;;;;;5036472;28;20191;-31
2022/08/15 10:30:41;;;;;;;2.08;1.70;;;25.10;51.00;;;;;;5034282;28;20156;-32
2022/08/15 10:33:27;;;;;;;1.20;1.20;;;25.00;52.30;;;;;;5036209;28;20046;-32
2022/08/15 10:36:02;;;;;;;3.28;1.83;;;24.80;51.60;;;;;;5037807;28;20061;-32
2022/08/15 10:38:29;;;;;;;1.77;1.20;;;25.00;53.40;;;;;;5025931;28;20143;-31
2022/08/15 10:41:10;;;;;;;2.45;1.70;;;24.90;50.40;;;;;;5033016;28;20064;-31
2022/08/15 10:44:01;;;;;;;3.28;1.90;;;25.00;50.00;;;;;;5032592;28;20029;-31
2022/08/15 10:46:45;;;;;;;5.03;1.95;;;25.30;52.70;;;;;;5040122;28;20113;-36
2022/08/15 10:49:45;;;;;;;2.22;1.75;;;25.50;52.30;;;;;;5032073;28;20102;-31
2022/08/15 10:52:27;;;;;;;1.83;1.73;;;25.60;51.30;;;;;;5042121;28;20110;-33
2022/08/15 10:54:55;;;;;;;3.00;1.80;;;25.50;49.40;;;;;;5032017;28;20033;-32
2022/08/15 10:57:23;;;;;;;1.77;1.67;;;25.90;52.40;;;;;;5036953;28;20036;-31
2022/08/15 10:59:52;;;;;;;3.38;2.00;;;26.20;50.20;;;;;;5042765;28;20497;-31
2022/08/15 11:02:34;;;;;;;1.85;1.75;;;26.10;50.10;;;;;;5029292;28;20033;-31
2022/08/15 11:05:02;;;;;;;2.28;1.80;;;26.00;50.10;;;;;;5028280;28;20549;-34
2022/08/15 11:07:27;;;;;;;2.08;1.65;;;26.10;51.50;;;;;;5033388;28;20437;-32
2022/08/15 11:09:56;;;;;;;2.10;1.90;;;25.90;47.00;;;;;;5042697;28;20017;-32
2022/08/15 11:12:23;;;;;;;2.55;1.60;;;25.50;48.90;;;;;;5029530;28;20025;-31
2022/08/15 11:14:54;;;;;;;;;;;25.90;50.80;;;;;;5031025;28;20090;-32
2022/08/15 11:17:23;;;;;;;2.10;2.00;;;26.10;51.30;;;;;;5035683;28;20369;-32
2022/08/15 11:19:51;;;;;;;2.60;1.92;;;25.70;50.70;;;;;;5039427;28;20037;-32
2022/08/15 11:22:32;;;;;;;1.98;1.65;;;25.50;48.20;;;;;;5038567;28;20112;-34
2022/08/15 11:25:03;;;;;;;3.83;2.17;;;25.70;47.80;;;;;;5029919;28;20025;-32
2022/08/15 11:27:29;;;;;;;2.25;1.90;;;25.80;47.60;;;;;;5037209;28;20037;-33
2022/08/15 11:29:57;;;;;;;2.83;2.00;;;25.90;49.10;;;;;;5030885;28;20033;-30
2022/08/15 11:32:31;;;;;;;4.55;2.40;;;26.10;49.90;;;;;;5028991;28;20033;-33
2022/08/15 11:34:58;;;;;;;3.42;2.10;;;26.20;49.20;;;;;;5034077;28;20037;-31
2022/08/15 11:37:28;;;;;;;1.75;1.65;;;26.30;50.00;;;;;;5031865;28;20068;-31
2022/08/15 11:40:04;;;;;;;3.45;2.05;;;26.30;49.10;;;;;;5038647;28;20128;-34
2022/08/15 11:42:36;;;;;;;2.10;2.00;;;26.50;49.00;;;;;;5028195;28;20029;-31
2022/08/15 11:45:26;;;;;;;2.38;2.05;;;26.60;47.90;;;;;;5035143;28;20036;-31
2022/08/15 11:47:55;;;;;;;3.30;2.08;;;26.30;46.00;;;;;;5030148;28;20386;-31
2022/08/15 11:50:37;;;;;;;2.15;1.95;;;26.30;46.40;;;;;;5029929;28;20025;-30
2022/08/15 11:53:06;;;;;;;3.88;2.22;;;26.20;46.10;;;;;;5040838;28;20072;-33
2022/08/15 11:55:32;;;;;;;2.50;2.30;;;26.20;47.10;;;;;;5035853;28;20623;-32
2022/08/15 11:58:00;;;;;;;2.05;1.85;;;26.30;46.90;;;;;;5038076;28;20056;-32
2022/08/15 12:00:38;;;;;;;3.10;2.10;;;26.50;48.20;;;;;;5024898;28;20035;-31
2022/08/15 12:03:20;;;;;;;4.13;2.25;;;26.60;46.70;;;;;;5030199;28;20134;-33
2022/08/15 12:05:47;;;;;;;2.20;2.00;;;26.80;46.50;;;;;;5026472;28;20079;-31
2022/08/15 12:08:13;;;;;;;2.90;1.95;;;26.80;46.10;;;;;;5032708;28;20048;-34
2022/08/15 12:10:41;;;;;;;2.53;2.17;;;26.90;47.30;;;;;;5040460;28;20045;-31
2022/08/15 12:13:08;;;;;;;2.50;2.30;;;27.00;47.20;;;;;;5035181;28;20095;-32
2022/08/15 12:15:33;;;;;;;2.80;1.90;;;26.90;46.40;;;;;;5035791;28;20044;-34
2022/08/15 12:18:32;;;;;;;2.25;1.85;;;26.80;45.60;;;;;;5033187;28;20033;-33
2022/08/15 12:21:02;;;;;;;1.83;1.63;;;26.80;46.20;;;;;;5036291;28;20057;-34
2022/08/15 12:23:52;;;;;;;2.00;1.80;;;26.90;45.20;;;;;;5037656;28;20028;-33
2022/08/15 12:26:19;;;;;;;2.25;2.05;;;26.70;43.50;;;;;;5034785;28;20030;-33
2022/08/15 12:28:46;;;;;;;2.00;1.80;;;26.60;44.30;;;;;;5035504;28;20424;-32
2022/08/15 12:31:23;;;;;;;2.20;2.00;;;26.50;45.40;;;;;;5036371;28;20048;-34
2022/08/15 12:34:10;;;;;;;1.90;1.75;;;26.70;46.50;;;;;;5035623;28;20482;-31
2022/08/15 12:36:37;;;;;;;2.83;2.15;;;26.70;44.80;;;;;;5034845;28;20521;-31
2022/08/15 12:39:03;;;;;;;2.63;2.43;;;26.70;44.20;;;;;;5032794;28;20033;-33
2022/08/15 12:41:30;;;;;;;2.20;2.00;;;26.80;43.10;;;;;;5033997;28;20038;-32
2022/08/15 12:43:56;;;;;;;2.20;2.00;;;26.90;42.50;;;;;;5031785;28;20075;-32
2022/08/15 12:46:22;;;;;;;2.65;1.83;;;26.90;43.60;;;;;;5041799;28;20052;-34
2022/08/15 12:48:49;;;;;;;2.50;2.20;;;27.00;45.20;;;;;;5039071;28;20537;-32
2022/08/15 12:51:16;;;;;;;3.92;1.83;;;27.30;44.70;;;;;;5041630;28;20109;-31
2022/08/15 12:53:42;;;;;;;2.28;1.80;;;26.60;42.90;;;;;;5037431;28;20021;-32
2022/08/15 12:56:08;;;;;;;2.15;1.90;;;26.60;44.10;;;;;;5038270;28;20371;-41
2022/08/15 12:58:35;;;;;;;3.70;2.15;;;26.70;42.50;;;;;;5041394;28;20367;-40
2022/08/15 13:01:03;;;;;;;2.30;2.10;;;26.90;43.30;;;;;;5032883;28;20086;-39
2022/08/15 13:03:29;;;;;;;3.92;2.97;;;26.70;43.50;;;;;;5035868;28;20723;-41
2022/08/15 13:06:03;;;;;;;3.20;1.83;;;26.20;42.90;;;;;;5035125;28;20098;-40
2022/08/15 13:08:29;;;;;;;3.22;2.00;;;26.40;43.10;;;;;;5029779;28;20033;-38
2022/08/15 13:10:54;;;;;;;2.15;1.90;;;26.70;42.00;;;;;;5027000;28;20517;-41
2022/08/15 13:13:21;;;;;;;2.15;2.03;;;26.90;41.90;;;;;;5027986;28;20029;-42
2022/08/15 13:15:48;;;;;;;2.38;2.17;;;27.00;40.40;;;;;;5035541;28;20509;-41
2022/08/15 13:18:19;;;;;;;1.67;1.58;;;27.00;41.60;;;;;;5028614;28;20029;-40
2022/08/15 13:23:35;;;;;;;2.08;1.88;;;27.30;42.90;;;;;;5031196;28;20052;-39
2022/08/15 13:26:01;;;;;;;2.50;2.03;;;27.50;42.20;;;;;;5035518;28;20469;-40